sensor_id;sensor_type;location;lat;lon;timestamp;P1;durP1;ratioP1;P2;durP2;ratioP2
27265;SDS011;14766;51.380;13.762;2023-06-14T00:00:55;1.60;;;1.48;;
27265;SDS011;14766;51.380;13.762;2023-06-14T00:03:23;2.55;;;1.70;;
27265;SDS011;14766;51.380;13.762;2023-06-14T00:05:51;2.08;;;1.85;;
27265;SDS011;14766;51.380;13.762;2023-06-14T00:08:18;2.50;;;1.60;;
27265;SDS011;14766;51.380;13.762;2023-06-14T00:10:47;2.85;;;1.70;;
27265;SDS011;14766;51.380;13.762;2023-06-14T00:13:15;3.47;;;1.92;;
27265;SDS011;14766;51.380;13.762;2023-06-14T00:15:42;1.83;;;1.40;;
27265;SDS011;14766;51.380;13.762;2023-06-14T00:18:11;2.78;;;1.70;;
27265;SDS011;14766;51.380;13.762;2023-06-14T00:20:39;2.13;;;1.67;;
27265;SDS011;14766;51.380;13.762;2023-06-14T00:23:08;2.25;;;1.67;;
27265;SDS011;14766;51.380;13.762;2023-06-14T00:25:35;3.53;;;1.60;;
27265;SDS011;14766;51.380;13.762;2023-06-14T00:28:02;1.95;;;1.48;;
27265;SDS011;14766;51.380;13.762;2023-06-14T00:30:29;2.58;;;1.60;;
27265;SDS011;14766;51.380;13.762;2023-06-14T00:32:57;2.45;;;1.75;;
27265;SDS011;14766;51.380;13.762;2023-06-14T00:35:24;2.67;;;1.95;;
27265;SDS011;14766;51.380;13.762;2023-06-14T00:37:52;2.10;;;1.70;;
27265;SDS011;14766;51.380;13.762;2023-06-14T00:40:21;2.90;;;1.98;;
27265;SDS011;14766;51.380;13.762;2023-06-14T00:42:49;4.05;;;1.63;;
27265;SDS011;14766;51.380;13.762;2023-06-14T00:45:16;3.13;;;1.95;;
27265;SDS011;14766;51.380;13.762;2023-06-14T00:47:43;1.67;;;1.52;;
27265;SDS011;14766;51.380;13.762;2023-06-14T00:50:12;1.90;;;1.70;;
27265;SDS011;14766;51.380;13.762;2023-06-14T00:52:40;2.60;;;1.50;;
27265;SDS011;14766;51.380;13.762;2023-06-14T00:55:08;1.80;;;1.60;;
27265;SDS011;14766;51.380;13.762;2023-06-14T00:57:35;1.60;;;1.48;;
27265;SDS011;14766;51.380;13.762;2023-06-14T01:00:05;2.35;;;1.80;;
27265;SDS011;14766;51.380;13.762;2023-06-14T01:02:37;3.58;;;2.00;;
27265;SDS011;14766;51.380;13.762;2023-06-14T01:05:08;3.25;;;2.00;;
27265;SDS011;14766;51.380;13.762;2023-06-14T01:07:45;1.63;;;1.52;;
27265;SDS011;14766;51.380;13.762;2023-06-14T01:11:28;2.40;;;1.70;;
27265;SDS011;14766;51.380;13.762;2023-06-14T01:13:59;2.08;;;1.85;;
27265;SDS011;14766;51.380;13.762;2023-06-14T01:16:29;2.45;;;1.80;;
27265;SDS011;14766;51.380;13.762;2023-06-14T01:18:58;1.75;;;1.60;;
27265;SDS011;14766;51.380;13.762;2023-06-14T01:21:26;2.40;;;1.77;;
27265;SDS011;14766;51.380;13.762;2023-06-14T01:23:54;5.05;;;2.00;;
27265;SDS011;14766;51.380;13.762;2023-06-14T01:26:25;3.15;;;1.90;;
27265;SDS011;14766;51.380;13.762;2023-06-14T01:28:59;2.30;;;2.08;;
27265;SDS011;14766;51.380;13.762;2023-06-14T01:31:29;4.10;;;1.92;;
27265;SDS011;14766;51.380;13.762;2023-06-14T01:34:07;2.75;;;1.90;;
27265;SDS011;14766;51.380;13.762;2023-06-14T01:36:36;4.63;;;2.15;;
27265;SDS011;14766;51.380;13.762;2023-06-14T01:39:07;3.08;;;2.05;;
27265;SDS011;14766;51.380;13.762;2023-06-14T01:41:34;3.30;;;2.10;;
27265;SDS011;14766;51.380;13.762;2023-06-14T01:44:02;2.42;;;1.83;;
27265;SDS011;14766;51.380;13.762;2023-06-14T01:46:32;1.95;;;1.75;;
27265;SDS011;14766;51.380;13.762;2023-06-14T01:48:59;3.08;;;1.90;;
27265;SDS011;14766;51.380;13.762;2023-06-14T01:51:26;3.47;;;2.15;;
27265;SDS011;14766;51.380;13.762;2023-06-14T01:53:53;3.92;;;2.35;;
27265;SDS011;14766;51.380;13.762;2023-06-14T01:56:21;2.95;;;2.00;;
27265;SDS011;14766;51.380;13.762;2023-06-14T01:58:48;3.50;;;2.30;;
27265;SDS011;14766;51.380;13.762;2023-06-14T02:01:16;2.97;;;2.40;;
27265;SDS011;14766;51.380;13.762;2023-06-14T02:03:44;4.57;;;2.28;;
27265;SDS011;14766;51.380;13.762;2023-06-14T02:06:15;4.30;;;2.40;;
27265;SDS011;14766;51.380;13.762;2023-06-14T02:08:44;5.10;;;2.80;;
27265;SDS011;14766;51.380;13.762;2023-06-14T02:11:12;2.78;;;1.98;;
27265;SDS011;14766;51.380;13.762;2023-06-14T02:13:39;2.72;;;2.28;;
27265;SDS011;14766;51.380;13.762;2023-06-14T02:16:06;2.70;;;1.88;;
27265;SDS011;14766;51.380;13.762;2023-06-14T02:18:33;2.38;;;2.10;;
27265;SDS011;14766;51.380;13.762;2023-06-14T02:21:01;3.78;;;2.20;;
27265;SDS011;14766;51.380;13.762;2023-06-14T02:23:28;2.85;;;2.40;;
27265;SDS011;14766;51.380;13.762;2023-06-14T02:25:58;2.65;;;2.45;;
27265;SDS011;14766;51.380;13.762;2023-06-14T02:28:25;3.13;;;2.63;;
27265;SDS011;14766;51.380;13.762;2023-06-14T02:30:52;3.72;;;2.10;;
27265;SDS011;14766;51.380;13.762;2023-06-14T02:33:22;3.10;;;2.40;;
27265;SDS011;14766;51.380;13.762;2023-06-14T02:35:49;2.40;;;2.05;;
27265;SDS011;14766;51.380;13.762;2023-06-14T02:38:16;2.92;;;2.38;;
27265;SDS011;14766;51.380;13.762;2023-06-14T02:40:44;2.42;;;2.22;;
27265;SDS011;14766;51.380;13.762;2023-06-14T02:43:11;2.90;;;2.58;;
27265;SDS011;14766;51.380;13.762;2023-06-14T02:45:38;2.80;;;2.58;;
27265;SDS011;14766;51.380;13.762;2023-06-14T02:48:05;3.35;;;2.30;;
27265;SDS011;14766;51.380;13.762;2023-06-14T02:50:32;6.75;;;2.78;;
27265;SDS011;14766;51.380;13.762;2023-06-14T02:53:02;3.50;;;2.65;;
27265;SDS011;14766;51.380;13.762;2023-06-14T02:55:30;3.97;;;2.63;;
27265;SDS011;14766;51.380;13.762;2023-06-14T02:57:58;4.40;;;2.60;;
27265;SDS011;14766;51.380;13.762;2023-06-14T03:00:27;2.65;;;2.45;;
27265;SDS011;14766;51.380;13.762;2023-06-14T03:02:56;3.55;;;2.47;;
27265;SDS011;14766;51.380;13.762;2023-06-14T03:05:24;4.03;;;2.80;;
27265;SDS011;14766;51.380;13.762;2023-06-14T03:07:51;2.55;;;2.35;;
27265;SDS011;14766;51.380;13.762;2023-06-14T03:10:20;4.88;;;2.60;;
27265;SDS011;14766;51.380;13.762;2023-06-14T03:12:50;4.32;;;2.92;;
27265;SDS011;14766;51.380;13.762;2023-06-14T03:15:20;4.47;;;2.78;;
27265;SDS011;14766;51.380;13.762;2023-06-14T03:17:51;3.85;;;2.80;;
27265;SDS011;14766;51.380;13.762;2023-06-14T03:20:20;4.82;;;3.10;;
27265;SDS011;14766;51.380;13.762;2023-06-14T03:22:48;3.72;;;2.80;;
27265;SDS011;14766;51.380;13.762;2023-06-14T03:25:15;3.63;;;2.90;;
27265;SDS011;14766;51.380;13.762;2023-06-14T03:27:45;2.90;;;2.53;;
27265;SDS011;14766;51.380;13.762;2023-06-14T03:30:13;4.20;;;2.60;;
27265;SDS011;14766;51.380;13.762;2023-06-14T03:32:43;3.10;;;2.80;;
27265;SDS011;14766;51.380;13.762;2023-06-14T03:35:11;3.30;;;2.70;;
27265;SDS011;14766;51.380;13.762;2023-06-14T03:37:45;3.08;;;2.78;;
27265;SDS011;14766;51.380;13.762;2023-06-14T03:40:14;3.00;;;2.50;;
27265;SDS011;14766;51.380;13.762;2023-06-14T03:42:47;3.83;;;3.08;;
27265;SDS011;14766;51.380;13.762;2023-06-14T03:45:15;3.03;;;2.72;;
27265;SDS011;14766;51.380;13.762;2023-06-14T03:47:42;3.85;;;3.22;;
27265;SDS011;14766;51.380;13.762;2023-06-14T03:50:10;3.88;;;2.60;;
27265;SDS011;14766;51.380;13.762;2023-06-14T03:52:38;3.20;;;2.90;;
27265;SDS011;14766;51.380;13.762;2023-06-14T03:55:05;4.47;;;3.20;;
27265;SDS011;14766;51.380;13.762;2023-06-14T03:57:36;5.20;;;3.42;;
27265;SDS011;14766;51.380;13.762;2023-06-14T04:00:08;3.40;;;3.10;;
27265;SDS011;14766;51.380;13.762;2023-06-14T04:02:39;4.10;;;3.30;;
27265;SDS011;14766;51.380;13.762;2023-06-14T04:05:09;4.10;;;3.22;;
27265;SDS011;14766;51.380;13.762;2023-06-14T04:07:42;4.72;;;3.30;;
27265;SDS011;14766;51.380;13.762;2023-06-14T04:10:12;3.67;;;3.15;;
27265;SDS011;14766;51.380;13.762;2023-06-14T04:12:39;5.18;;;3.10;;
27265;SDS011;14766;51.380;13.762;2023-06-14T04:15:10;4.47;;;3.38;;
27265;SDS011;14766;51.380;13.762;2023-06-14T04:17:50;4.97;;;3.58;;
27265;SDS011;14766;51.380;13.762;2023-06-14T04:20:19;9.23;;;3.60;;
27265;SDS011;14766;51.380;13.762;2023-06-14T04:22:47;6.10;;;4.05;;
27265;SDS011;14766;51.380;13.762;2023-06-14T04:25:15;4.10;;;3.50;;
27265;SDS011;14766;51.380;13.762;2023-06-14T04:27:50;4.55;;;3.65;;
27265;SDS011;14766;51.380;13.762;2023-06-14T04:30:19;4.85;;;3.35;;
27265;SDS011;14766;51.380;13.762;2023-06-14T04:33:14;5.25;;;3.53;;
27265;SDS011;14766;51.380;13.762;2023-06-14T04:35:42;4.90;;;3.25;;
27265;SDS011;14766;51.380;13.762;2023-06-14T04:38:09;5.75;;;3.42;;
27265;SDS011;14766;51.380;13.762;2023-06-14T04:40:37;4.22;;;3.38;;
27265;SDS011;14766;51.380;13.762;2023-06-14T04:43:15;3.55;;;3.25;;
27265;SDS011;14766;51.380;13.762;2023-06-14T04:45:46;6.80;;;3.67;;
27265;SDS011;14766;51.380;13.762;2023-06-14T04:48:14;6.93;;;3.67;;
27265;SDS011;14766;51.380;13.762;2023-06-14T04:50:41;5.90;;;3.78;;
27265;SDS011;14766;51.380;13.762;2023-06-14T04:53:10;6.45;;;4.10;;
27265;SDS011;14766;51.380;13.762;2023-06-14T04:55:38;4.30;;;3.35;;
27265;SDS011;14766;51.380;13.762;2023-06-14T04:58:05;7.00;;;3.60;;
27265;SDS011;14766;51.380;13.762;2023-06-14T05:00:33;4.38;;;3.42;;
27265;SDS011;14766;51.380;13.762;2023-06-14T05:03:00;4.88;;;4.13;;
27265;SDS011;14766;51.380;13.762;2023-06-14T05:05:28;5.70;;;4.18;;
27265;SDS011;14766;51.380;13.762;2023-06-14T05:07:55;4.45;;;3.22;;
27265;SDS011;14766;51.380;13.762;2023-06-14T05:10:22;3.83;;;3.42;;
27265;SDS011;14766;51.380;13.762;2023-06-14T05:12:49;4.65;;;3.80;;
27265;SDS011;14766;51.380;13.762;2023-06-14T05:15:18;4.85;;;3.95;;
27265;SDS011;14766;51.380;13.762;2023-06-14T05:17:45;5.72;;;3.60;;
27265;SDS011;14766;51.380;13.762;2023-06-14T05:20:22;4.32;;;3.50;;
27265;SDS011;14766;51.380;13.762;2023-06-14T05:22:54;5.30;;;4.13;;
27265;SDS011;14766;51.380;13.762;2023-06-14T05:25:23;6.28;;;4.10;;
27265;SDS011;14766;51.380;13.762;2023-06-14T05:27:50;8.05;;;3.97;;
27265;SDS011;14766;51.380;13.762;2023-06-14T05:30:18;8.93;;;4.28;;
27265;SDS011;14766;51.380;13.762;2023-06-14T05:32:46;6.03;;;3.92;;
27265;SDS011;14766;51.380;13.762;2023-06-14T05:35:15;5.82;;;4.00;;
27265;SDS011;14766;51.380;13.762;2023-06-14T05:37:42;4.70;;;4.03;;
27265;SDS011;14766;51.380;13.762;2023-06-14T05:40:09;10.75;;;3.92;;
27265;SDS011;14766;51.380;13.762;2023-06-14T05:42:37;9.15;;;4.25;;
27265;SDS011;14766;51.380;13.762;2023-06-14T05:45:04;8.18;;;4.32;;
27265;SDS011;14766;51.380;13.762;2023-06-14T05:47:32;8.38;;;3.70;;
27265;SDS011;14766;51.380;13.762;2023-06-14T05:49:59;5.47;;;3.83;;
27265;SDS011;14766;51.380;13.762;2023-06-14T05:52:26;4.35;;;3.95;;
27265;SDS011;14766;51.380;13.762;2023-06-14T05:54:54;4.00;;;3.47;;
27265;SDS011;14766;51.380;13.762;2023-06-14T05:57:22;10.10;;;4.40;;
27265;SDS011;14766;51.380;13.762;2023-06-14T05:59:50;5.20;;;3.60;;
27265;SDS011;14766;51.380;13.762;2023-06-14T06:02:17;5.20;;;3.97;;
27265;SDS011;14766;51.380;13.762;2023-06-14T06:04:45;5.03;;;3.80;;
27265;SDS011;14766;51.380;13.762;2023-06-14T06:07:12;6.70;;;4.13;;
27265;SDS011;14766;51.380;13.762;2023-06-14T06:09:39;6.50;;;3.95;;
27265;SDS011;14766;51.380;13.762;2023-06-14T06:12:06;3.83;;;3.22;;
27265;SDS011;14766;51.380;13.762;2023-06-14T06:14:34;6.15;;;3.65;;
27265;SDS011;14766;51.380;13.762;2023-06-14T06:17:01;4.32;;;3.55;;
27265;SDS011;14766;51.380;13.762;2023-06-14T06:19:28;4.38;;;3.38;;
27265;SDS011;14766;51.380;13.762;2023-06-14T06:21:55;6.03;;;4.20;;
27265;SDS011;14766;51.380;13.762;2023-06-14T06:24:22;5.53;;;3.35;;
27265;SDS011;14766;51.380;13.762;2023-06-14T06:26:49;3.28;;;2.78;;
27265;SDS011;14766;51.380;13.762;2023-06-14T06:29:16;5.47;;;3.40;;
27265;SDS011;14766;51.380;13.762;2023-06-14T06:31:43;4.50;;;3.00;;
27265;SDS011;14766;51.380;13.762;2023-06-14T06:34:12;4.65;;;3.28;;
27265;SDS011;14766;51.380;13.762;2023-06-14T06:36:39;7.97;;;3.53;;
27265;SDS011;14766;51.380;13.762;2023-06-14T06:39:06;4.07;;;2.95;;
27265;SDS011;14766;51.380;13.762;2023-06-14T06:41:39;3.58;;;2.65;;
27265;SDS011;14766;51.380;13.762;2023-06-14T06:44:07;5.85;;;3.20;;
27265;SDS011;14766;51.380;13.762;2023-06-14T06:46:38;6.13;;;3.20;;
27265;SDS011;14766;51.380;13.762;2023-06-14T06:49:09;4.55;;;3.42;;
27265;SDS011;14766;51.380;13.762;2023-06-14T06:51:41;6.15;;;3.00;;
27265;SDS011;14766;51.380;13.762;2023-06-14T06:54:09;3.92;;;3.13;;
27265;SDS011;14766;51.380;13.762;2023-06-14T06:56:37;4.53;;;2.75;;
27265;SDS011;14766;51.380;13.762;2023-06-14T06:59:04;4.07;;;3.05;;
27265;SDS011;14766;51.380;13.762;2023-06-14T07:01:31;4.28;;;3.20;;
27265;SDS011;14766;51.380;13.762;2023-06-14T07:04:00;3.30;;;3.00;;
27265;SDS011;14766;51.380;13.762;2023-06-14T07:06:28;3.00;;;2.70;;
27265;SDS011;14766;51.380;13.762;2023-06-14T07:08:56;5.43;;;3.10;;
27265;SDS011;14766;51.380;13.762;2023-06-14T07:11:28;3.65;;;2.75;;
27265;SDS011;14766;51.380;13.762;2023-06-14T07:13:55;3.10;;;2.58;;
27265;SDS011;14766;51.380;13.762;2023-06-14T07:16:22;3.50;;;3.10;;
27265;SDS011;14766;51.380;13.762;2023-06-14T07:18:50;3.40;;;3.10;;
27265;SDS011;14766;51.380;13.762;2023-06-14T07:21:17;3.85;;;2.80;;
27265;SDS011;14766;51.380;13.762;2023-06-14T07:23:45;6.32;;;2.60;;
27265;SDS011;14766;51.380;13.762;2023-06-14T07:26:12;4.72;;;3.00;;
27265;SDS011;14766;51.380;13.762;2023-06-14T07:28:41;2.92;;;2.65;;
27265;SDS011;14766;51.380;13.762;2023-06-14T07:31:11;3.70;;;2.67;;
27265;SDS011;14766;51.380;13.762;2023-06-14T07:33:39;3.75;;;2.60;;
27265;SDS011;14766;51.380;13.762;2023-06-14T07:36:07;5.57;;;2.92;;
27265;SDS011;14766;51.380;13.762;2023-06-14T07:38:34;3.55;;;3.05;;
27265;SDS011;14766;51.380;13.762;2023-06-14T07:41:03;3.38;;;2.90;;
27265;SDS011;14766;51.380;13.762;2023-06-14T07:43:30;3.05;;;2.67;;
27265;SDS011;14766;51.380;13.762;2023-06-14T07:45:57;3.35;;;2.70;;
27265;SDS011;14766;51.380;13.762;2023-06-14T07:48:33;2.90;;;2.60;;
27265;SDS011;14766;51.380;13.762;2023-06-14T07:51:01;2.92;;;2.60;;
27265;SDS011;14766;51.380;13.762;2023-06-14T07:53:29;3.83;;;2.58;;
27265;SDS011;14766;51.380;13.762;2023-06-14T07:55:57;7.82;;;3.05;;
27265;SDS011;14766;51.380;13.762;2023-06-14T07:58:24;3.75;;;3.00;;
27265;SDS011;14766;51.380;13.762;2023-06-14T08:00:51;3.28;;;2.50;;
27265;SDS011;14766;51.380;13.762;2023-06-14T08:03:18;2.60;;;2.40;;
27265;SDS011;14766;51.380;13.762;2023-06-14T08:05:47;4.20;;;2.53;;
27265;SDS011;14766;51.380;13.762;2023-06-14T08:08:14;3.22;;;2.60;;
27265;SDS011;14766;51.380;13.762;2023-06-14T08:10:42;2.97;;;2.53;;
27265;SDS011;14766;51.380;13.762;2023-06-14T08:13:09;3.60;;;2.60;;
27265;SDS011;14766;51.380;13.762;2023-06-14T08:15:37;3.50;;;2.80;;
27265;SDS011;14766;51.380;13.762;2023-06-14T08:18:05;3.10;;;2.80;;
27265;SDS011;14766;51.380;13.762;2023-06-14T08:20:33;3.50;;;2.80;;
27265;SDS011;14766;51.380;13.762;2023-06-14T08:23:02;4.45;;;3.10;;
27265;SDS011;14766;51.380;13.762;2023-06-14T08:25:30;2.95;;;2.65;;
27265;SDS011;14766;51.380;13.762;2023-06-14T08:27:58;4.32;;;2.90;;
27265;SDS011;14766;51.380;13.762;2023-06-14T08:30:25;3.92;;;2.80;;
27265;SDS011;14766;51.380;13.762;2023-06-14T08:32:52;6.43;;;2.90;;
27265;SDS011;14766;51.380;13.762;2023-06-14T08:35:40;5.57;;;2.50;;
27265;SDS011;14766;51.380;13.762;2023-06-14T08:38:08;4.10;;;2.78;;
27265;SDS011;14766;51.380;13.762;2023-06-14T08:40:37;6.70;;;3.42;;
27265;SDS011;14766;51.380;13.762;2023-06-14T08:43:05;5.20;;;3.67;;
27265;SDS011;14766;51.380;13.762;2023-06-14T08:45:32;4.05;;;2.90;;
27265;SDS011;14766;51.380;13.762;2023-06-14T08:48:01;3.58;;;2.95;;
27265;SDS011;14766;51.380;13.762;2023-06-14T08:50:30;4.00;;;2.95;;
27265;SDS011;14766;51.380;13.762;2023-06-14T08:53:04;3.85;;;2.58;;
27265;SDS011;14766;51.380;13.762;2023-06-14T08:55:33;3.45;;;2.15;;
27265;SDS011;14766;51.380;13.762;2023-06-14T08:58:03;3.55;;;2.40;;
27265;SDS011;14766;51.380;13.762;2023-06-14T09:00:31;2.50;;;2.30;;
27265;SDS011;14766;51.380;13.762;2023-06-14T09:03:00;2.88;;;2.55;;
27265;SDS011;14766;51.380;13.762;2023-06-14T09:05:28;8.13;;;2.80;;
27265;SDS011;14766;51.380;13.762;2023-06-14T09:07:55;3.13;;;2.55;;
27265;SDS011;14766;51.380;13.762;2023-06-14T09:10:32;3.72;;;2.28;;
27265;SDS011;14766;51.380;13.762;2023-06-14T09:13:04;3.55;;;2.55;;
27265;SDS011;14766;51.380;13.762;2023-06-14T09:15:32;4.18;;;2.95;;
27265;SDS011;14766;51.380;13.762;2023-06-14T09:18:01;3.30;;;2.63;;
27265;SDS011;14766;51.380;13.762;2023-06-14T09:20:30;6.68;;;3.15;;
27265;SDS011;14766;51.380;13.762;2023-06-14T09:22:58;5.80;;;3.10;;
27265;SDS011;14766;51.380;13.762;2023-06-14T09:25:25;3.63;;;3.33;;
27265;SDS011;14766;51.380;13.762;2023-06-14T09:27:56;3.97;;;3.25;;
27265;SDS011;14766;51.380;13.762;2023-06-14T09:30:23;3.78;;;3.17;;
27265;SDS011;14766;51.380;13.762;2023-06-14T09:32:51;4.78;;;2.78;;
27265;SDS011;14766;51.380;13.762;2023-06-14T09:35:20;3.78;;;3.28;;
27265;SDS011;14766;51.380;13.762;2023-06-14T09:37:47;3.72;;;3.08;;
27265;SDS011;14766;51.380;13.762;2023-06-14T09:40:16;3.70;;;3.22;;
27265;SDS011;14766;51.380;13.762;2023-06-14T09:42:47;4.70;;;3.42;;
27265;SDS011;14766;51.380;13.762;2023-06-14T09:45:16;4.35;;;3.42;;
27265;SDS011;14766;51.380;13.762;2023-06-14T09:47:49;3.17;;;2.88;;
27265;SDS011;14766;51.380;13.762;2023-06-14T09:50:32;4.50;;;3.03;;
27265;SDS011;14766;51.380;13.762;2023-06-14T09:53:02;3.17;;;2.88;;
27265;SDS011;14766;51.380;13.762;2023-06-14T09:55:34;3.88;;;3.00;;
27265;SDS011;14766;51.380;13.762;2023-06-14T09:58:05;4.45;;;3.10;;
27265;SDS011;14766;51.380;13.762;2023-06-14T10:00:35;6.57;;;3.17;;
27265;SDS011;14766;51.380;13.762;2023-06-14T10:03:13;5.07;;;3.22;;
27265;SDS011;14766;51.380;13.762;2023-06-14T10:05:46;3.70;;;3.35;;
27265;SDS011;14766;51.380;13.762;2023-06-14T10:08:23;5.78;;;3.17;;
27265;SDS011;14766;51.380;13.762;2023-06-14T10:13:21;2.88;;;2.35;;
27265;SDS011;14766;51.380;13.762;2023-06-14T10:16:00;2.75;;;2.40;;
27265;SDS011;14766;51.380;13.762;2023-06-14T10:18:40;3.00;;;2.50;;
27265;SDS011;14766;51.380;13.762;2023-06-14T10:24:01;2.78;;;2.45;;
27265;SDS011;14766;51.380;13.762;2023-06-14T10:26:34;2.47;;;2.13;;
27265;SDS011;14766;51.380;13.762;2023-06-14T10:29:01;2.67;;;2.47;;
27265;SDS011;14766;51.380;13.762;2023-06-14T10:31:48;2.58;;;2.38;;
27265;SDS011;14766;51.380;13.762;2023-06-14T10:34:26;3.45;;;2.40;;
27265;SDS011;14766;51.380;13.762;2023-06-14T10:37:05;4.18;;;2.90;;
27265;SDS011;14766;51.380;13.762;2023-06-14T10:39:40;3.08;;;2.65;;
27265;SDS011;14766;51.380;13.762;2023-06-14T10:42:09;3.90;;;3.28;;
27265;SDS011;14766;51.380;13.762;2023-06-14T10:47:10;3.50;;;3.08;;
27265;SDS011;14766;51.380;13.762;2023-06-14T10:50:05;4.07;;;3.38;;
27265;SDS011;14766;51.380;13.762;2023-06-14T10:52:40;7.55;;;3.28;;
27265;SDS011;14766;51.380;13.762;2023-06-14T10:55:16;8.63;;;3.58;;
27265;SDS011;14766;51.380;13.762;2023-06-14T10:57:50;6.85;;;3.50;;
27265;SDS011;14766;51.380;13.762;2023-06-14T11:00:21;4.40;;;3.60;;
27265;SDS011;14766;51.380;13.762;2023-06-14T11:08:27;3.20;;;2.90;;
27265;SDS011;14766;51.380;13.762;2023-06-14T11:11:13;3.53;;;3.13;;
27265;SDS011;14766;51.380;13.762;2023-06-14T11:13:44;3.58;;;3.28;;
27265;SDS011;14766;51.380;13.762;2023-06-14T11:16:14;5.15;;;3.30;;
27265;SDS011;14766;51.380;13.762;2023-06-14T11:18:43;3.40;;;2.60;;
27265;SDS011;14766;51.380;13.762;2023-06-14T11:21:15;3.80;;;3.10;;
27265;SDS011;14766;51.380;13.762;2023-06-14T11:23:51;3.35;;;2.60;;
27265;SDS011;14766;51.380;13.762;2023-06-14T11:28:57;4.20;;;2.35;;
27265;SDS011;14766;51.380;13.762;2023-06-14T11:31:26;5.88;;;2.78;;
27265;SDS011;14766;51.380;13.762;2023-06-14T11:33:56;7.75;;;3.15;;
27265;SDS011;14766;51.380;13.762;2023-06-14T11:36:28;3.97;;;2.40;;
27265;SDS011;14766;51.380;13.762;2023-06-14T11:39:00;7.40;;;2.88;;
27265;SDS011;14766;51.380;13.762;2023-06-14T11:41:36;5.22;;;2.70;;
27265;SDS011;14766;51.380;13.762;2023-06-14T11:44:05;3.33;;;2.58;;
27265;SDS011;14766;51.380;13.762;2023-06-14T11:46:34;3.10;;;2.53;;
27265;SDS011;14766;51.380;13.762;2023-06-14T11:49:02;3.80;;;2.25;;
27265;SDS011;14766;51.380;13.762;2023-06-14T11:51:34;3.80;;;2.15;;
27265;SDS011;14766;51.380;13.762;2023-06-14T11:54:02;3.72;;;2.78;;
27265;SDS011;14766;51.380;13.762;2023-06-14T11:56:32;3.65;;;2.47;;
27265;SDS011;14766;51.380;13.762;2023-06-14T11:59:02;2.80;;;2.40;;
27265;SDS011;14766;51.380;13.762;2023-06-14T12:01:29;3.97;;;2.15;;
27265;SDS011;14766;51.380;13.762;2023-06-14T12:03:59;7.97;;;2.50;;
27265;SDS011;14766;51.380;13.762;2023-06-14T12:06:27;2.33;;;2.13;;
27265;SDS011;14766;51.380;13.762;2023-06-14T12:09:00;2.40;;;2.00;;
27265;SDS011;14766;51.380;13.762;2023-06-14T12:11:32;4.28;;;2.67;;
27265;SDS011;14766;51.380;13.762;2023-06-14T12:14:00;2.33;;;2.13;;
27265;SDS011;14766;51.380;13.762;2023-06-14T12:16:37;3.45;;;2.60;;
27265;SDS011;14766;51.380;13.762;2023-06-14T12:19:09;3.83;;;2.10;;
27265;SDS011;14766;51.380;13.762;2023-06-14T12:21:41;5.13;;;2.00;;
27265;SDS011;14766;51.380;13.762;2023-06-14T12:24:11;2.53;;;2.25;;
27265;SDS011;14766;51.380;13.762;2023-06-14T12:26:40;4.43;;;2.25;;
27265;SDS011;14766;51.380;13.762;2023-06-14T12:29:07;6.43;;;2.67;;
27265;SDS011;14766;51.380;13.762;2023-06-14T12:31:35;2.85;;;2.50;;
27265;SDS011;14766;51.380;13.762;2023-06-14T12:34:02;3.65;;;2.38;;
27265;SDS011;14766;51.380;13.762;2023-06-14T12:36:29;2.95;;;2.10;;
27265;SDS011;14766;51.380;13.762;2023-06-14T12:38:58;2.63;;;2.30;;
27265;SDS011;14766;51.380;13.762;2023-06-14T12:41:25;4.57;;;2.22;;
27265;SDS011;14766;51.380;13.762;2023-06-14T12:43:53;5.80;;;2.58;;
27265;SDS011;14766;51.380;13.762;2023-06-14T12:46:20;4.25;;;2.58;;
27265;SDS011;14766;51.380;13.762;2023-06-14T12:48:48;3.00;;;2.67;;
27265;SDS011;14766;51.380;13.762;2023-06-14T12:51:15;3.00;;;2.20;;
27265;SDS011;14766;51.380;13.762;2023-06-14T12:53:43;3.92;;;2.13;;
27265;SDS011;14766;51.380;13.762;2023-06-14T12:56:10;2.35;;;1.83;;
27265;SDS011;14766;51.380;13.762;2023-06-14T12:58:37;2.30;;;2.17;;
27265;SDS011;14766;51.380;13.762;2023-06-14T13:01:04;2.30;;;2.00;;
27265;SDS011;14766;51.380;13.762;2023-06-14T13:03:32;2.50;;;2.30;;
27265;SDS011;14766;51.380;13.762;2023-06-14T13:06:00;3.92;;;2.25;;
27265;SDS011;14766;51.380;13.762;2023-06-14T13:08:31;2.97;;;2.67;;
27265;SDS011;14766;51.380;13.762;2023-06-14T13:10:58;2.80;;;2.00;;
27265;SDS011;14766;51.380;13.762;2023-06-14T13:13:25;3.20;;;2.00;;
27265;SDS011;14766;51.380;13.762;2023-06-14T13:15:52;2.30;;;1.73;;
27265;SDS011;14766;51.380;13.762;2023-06-14T13:18:20;2.10;;;1.85;;
27265;SDS011;14766;51.380;13.762;2023-06-14T13:20:47;3.55;;;1.77;;
27265;SDS011;14766;51.380;13.762;2023-06-14T13:23:15;2.65;;;1.70;;
27265;SDS011;14766;51.380;13.762;2023-06-14T13:25:42;2.45;;;1.80;;
27265;SDS011;14766;51.380;13.762;2023-06-14T13:28:10;2.40;;;1.75;;
27265;SDS011;14766;51.380;13.762;2023-06-14T13:30:38;2.33;;;2.05;;
27265;SDS011;14766;51.380;13.762;2023-06-14T13:33:06;2.88;;;2.10;;
27265;SDS011;14766;51.380;13.762;2023-06-14T13:35:34;3.22;;;1.75;;
27265;SDS011;14766;51.380;13.762;2023-06-14T13:38:01;3.45;;;1.90;;
27265;SDS011;14766;51.380;13.762;2023-06-14T13:40:28;2.38;;;1.70;;
27265;SDS011;14766;51.380;13.762;2023-06-14T13:42:55;3.10;;;1.63;;
27265;SDS011;14766;51.380;13.762;2023-06-14T13:45:22;3.10;;;1.80;;
27265;SDS011;14766;51.380;13.762;2023-06-14T13:47:50;2.00;;;1.85;;
27265;SDS011;14766;51.380;13.762;2023-06-14T13:50:18;3.85;;;1.77;;
27265;SDS011;14766;51.380;13.762;2023-06-14T13:52:46;4.20;;;1.90;;
27265;SDS011;14766;51.380;13.762;2023-06-14T13:55:13;4.85;;;1.95;;
27265;SDS011;14766;51.380;13.762;2023-06-14T13:57:41;1.90;;;1.63;;
27265;SDS011;14766;51.380;13.762;2023-06-14T14:00:08;2.25;;;1.80;;
27265;SDS011;14766;51.380;13.762;2023-06-14T14:02:40;2.42;;;1.77;;
27265;SDS011;14766;51.380;13.762;2023-06-14T14:05:08;2.55;;;1.70;;
27265;SDS011;14766;51.380;13.762;2023-06-14T14:07:35;4.05;;;2.17;;
27265;SDS011;14766;51.380;13.762;2023-06-14T14:10:04;2.85;;;2.20;;
27265;SDS011;14766;51.380;13.762;2023-06-14T14:12:31;2.85;;;1.95;;
27265;SDS011;14766;51.380;13.762;2023-06-14T14:14:58;3.25;;;2.20;;
27265;SDS011;14766;51.380;13.762;2023-06-14T14:17:26;4.97;;;1.90;;
27265;SDS011;14766;51.380;13.762;2023-06-14T14:19:53;2.78;;;1.70;;
27265;SDS011;14766;51.380;13.762;2023-06-14T14:22:20;3.63;;;2.03;;
27265;SDS011;14766;51.380;13.762;2023-06-14T14:24:47;2.08;;;1.88;;
27265;SDS011;14766;51.380;13.762;2023-06-14T14:27:15;2.53;;;1.90;;
27265;SDS011;14766;51.380;13.762;2023-06-14T14:29:42;3.08;;;1.88;;
27265;SDS011;14766;51.380;13.762;2023-06-14T14:32:09;2.95;;;2.08;;
27265;SDS011;14766;51.380;13.762;2023-06-14T14:34:40;2.28;;;1.90;;
27265;SDS011;14766;51.380;13.762;2023-06-14T14:37:07;2.35;;;2.15;;
27265;SDS011;14766;51.380;13.762;2023-06-14T14:39:36;2.75;;;2.30;;
27265;SDS011;14766;51.380;13.762;2023-06-14T14:42:03;2.42;;;2.20;;
27265;SDS011;14766;51.380;13.762;2023-06-14T14:44:32;2.40;;;2.00;;
27265;SDS011;14766;51.380;13.762;2023-06-14T14:47:01;2.50;;;2.20;;
27265;SDS011;14766;51.380;13.762;2023-06-14T14:49:30;2.80;;;2.30;;
27265;SDS011;14766;51.380;13.762;2023-06-14T14:51:58;4.38;;;2.08;;
27265;SDS011;14766;51.380;13.762;2023-06-14T14:54:40;5.25;;;2.58;;
27265;SDS011;14766;51.380;13.762;2023-06-14T14:57:08;2.25;;;2.05;;
27265;SDS011;14766;51.380;13.762;2023-06-14T14:59:37;2.38;;;2.17;;
27265;SDS011;14766;51.380;13.762;2023-06-14T15:02:04;2.65;;;2.35;;